Haywood, Kentucky
Current Conditions -  °F | °C
As of 9:55 AM on Friday 31 Oct 2014 (Local Time) from KGLW Reporting Station
Light Rain Light Rain  
Wind Chill: 46°   Ceiling: 2800
Heat Index: 46°   Visibility: 5mi
Dew Point: 46°   Wind: 3mph
Humidity: 97%   Direction: 310°NW
Pressure: 30.02"   Gusts: NA
Location:  36.9602°N, 85.9175°W
Report Text: KGLW 311455Z AUTO 31003KT 5SM -RA SCT018 OVC028 08/08 A3002 RMK AO2 60003 T00800076
Loading
Personal Weather Stations






























Interactive Weather Map
Tropical Storm Tracking
New forecast layout! Learn more

10-Day Weather Forecast

Advertisements
Track Severe Weather on mobile